createdAt,value
2018-12-14T00:01:32.051Z,75.49
2018-12-14T00:04:06.627Z,75.47
2018-12-14T00:06:38.878Z,75.53
2018-12-14T00:09:10.959Z,75.29
2018-12-14T00:11:45.494Z,75.35
2018-12-14T00:14:17.751Z,75.38
2018-12-14T00:16:50.323Z,75.28
2018-12-14T00:19:22.914Z,75.18
2018-12-14T00:21:54.909Z,76.19
2018-12-14T00:24:26.991Z,75.76
2018-12-14T00:26:59.587Z,75.50
2018-12-14T00:29:31.660Z,75.73
2018-12-14T00:32:05.961Z,75.77
2018-12-14T00:34:40.133Z,75.38
2018-12-14T00:37:11.960Z,75.31
2018-12-14T00:39:43.872Z,75.81
2018-12-14T00:42:16.705Z,75.51
2018-12-14T00:44:48.901Z,76.36
2018-12-14T00:47:20.581Z,75.61
2018-12-14T00:49:52.771Z,75.59
2018-12-14T00:52:25.004Z,76.32
2018-12-14T00:54:56.697Z,75.67
2018-12-14T00:57:28.588Z,76.12
2018-12-14T01:00:00.864Z,76.04
2018-12-14T01:02:32.915Z,76.02
2018-12-14T01:05:03.059Z,75.27
2018-12-14T01:10:29.623Z,75.39
2018-12-14T01:13:01.621Z,75.20
2018-12-14T01:15:33.870Z,75.30
2018-12-14T01:18:06.204Z,75.14
2018-12-14T01:20:36.406Z,74.99
2018-12-14T01:23:09.124Z,75.39
2018-12-14T01:25:40.897Z,75.81
2018-12-14T01:28:13.656Z,75.13
2018-12-14T01:30:45.383Z,75.93
2018-12-14T01:33:17.587Z,75.35
2018-12-14T01:35:49.802Z,75.52
2018-12-14T01:38:22.109Z,75.05
2018-12-14T01:40:56.456Z,75.77
2018-12-14T01:43:28.744Z,75.61
2018-12-14T01:46:00.655Z,75.99
2018-12-14T01:48:31.007Z,75.46
2018-12-14T01:51:03.205Z,74.45
2018-12-14T01:53:35.598Z,74.86
2018-12-14T01:56:07.622Z,74.91
2018-12-14T01:58:40.017Z,75.62
2018-12-14T02:01:10.259Z,75.57
2018-12-14T02:03:42.575Z,75.17
2018-12-14T02:08:46.294Z,75.81
2018-12-14T02:11:18.084Z,75.48
2018-12-14T02:13:50.231Z,75.21
2018-12-14T02:16:27.139Z,75.87
2018-12-14T02:18:58.732Z,75.57
2018-12-14T02:21:30.718Z,75.75
2018-12-14T02:24:02.971Z,75.41
2018-12-14T02:26:33.468Z,75.26
2018-12-14T02:29:05.599Z,74.72
2018-12-14T02:31:37.824Z,74.73
2018-12-14T02:34:09.798Z,75.41
2018-12-14T02:36:42.077Z,75.83
2018-12-14T02:39:14.799Z,75.20
2018-12-14T02:41:49.246Z,75.36
2018-12-14T02:44:21.212Z,75.47
2018-12-14T02:46:53.776Z,75.87
2018-12-14T02:49:25.907Z,75.29
2018-12-14T02:51:58.603Z,74.96
2018-12-14T02:54:30.502Z,74.97
2018-12-14T02:57:02.920Z,74.96
2018-12-14T02:59:35.068Z,74.87
2018-12-14T03:02:07.433Z,74.85
2018-12-14T03:04:39.513Z,73.87
2018-12-14T03:09:43.209Z,74.38
2018-12-14T03:12:15.619Z,74.09
2018-12-14T03:14:45.663Z,74.89
2018-12-14T03:17:18.117Z,74.52
2018-12-14T03:19:50.692Z,73.90
2018-12-14T03:22:22.656Z,74.61
2018-12-14T03:24:54.989Z,74.77
2018-12-14T03:27:29.763Z,74.19
2018-12-14T03:30:00.393Z,74.79
2018-12-14T03:32:32.392Z,74.74
2018-12-14T03:35:05.181Z,74.43
2018-12-14T03:37:36.821Z,74.57
2018-12-14T03:40:09.175Z,75.35
2018-12-14T03:42:56.232Z,74.23
2018-12-14T03:45:28.873Z,74.11
2018-12-14T03:48:01.317Z,74.32
2018-12-14T03:50:32.920Z,74.41
2018-12-14T03:53:04.834Z,74.56
2018-12-14T03:55:36.643Z,74.80
2018-12-14T03:58:09.331Z,74.10
2018-12-14T04:00:42.220Z,74.87
2018-12-14T04:03:14.350Z,74.20
2018-12-14T04:05:46.626Z,74.56
2018-12-14T04:10:50.543Z,74.65
2018-12-14T04:13:22.789Z,74.39
2018-12-14T04:15:52.962Z,73.64
2018-12-14T04:18:24.984Z,73.71
2018-12-14T04:20:56.866Z,73.50
2018-12-14T04:23:29.243Z,74.01
2018-12-14T04:26:01.371Z,73.68
2018-12-14T04:28:31.775Z,73.75
2018-12-14T04:31:04.416Z,73.86
2018-12-14T04:33:41.206Z,73.94
2018-12-14T04:36:13.676Z,74.16
2018-12-14T04:38:45.864Z,73.46
2018-12-14T04:41:18.265Z,74.06
2018-12-14T04:43:50.073Z,74.07
2018-12-14T04:46:22.449Z,73.76
2018-12-14T04:48:54.726Z,74.82
2018-12-14T04:51:26.690Z,73.96
2018-12-14T04:53:59.004Z,74.35
2018-12-14T04:56:33.503Z,73.59
2018-12-14T04:59:05.985Z,74.10
2018-12-14T05:01:38.399Z,73.56
2018-12-14T05:04:10.569Z,73.92
2018-12-14T05:06:42.771Z,75.16
2018-12-14T05:09:15.433Z,74.43
2018-12-14T05:11:47.305Z,74.40
2018-12-14T05:14:20.726Z,74.33
2018-12-14T05:16:53.678Z,74.33
2018-12-14T05:19:27.053Z,74.01
2018-12-14T05:22:00.399Z,73.71
2018-12-14T05:24:31.088Z,74.21
2018-12-14T05:27:02.589Z,74.33
2018-12-14T05:29:35.050Z,74.51
2018-12-14T05:32:07.638Z,73.77
2018-12-14T05:34:40.432Z,74.67
2018-12-14T05:37:13.202Z,74.25
2018-12-14T05:39:44.809Z,74.30
2018-12-14T05:42:21.622Z,74.71
2018-12-14T05:44:57.729Z,74.55
2018-12-14T05:47:30.092Z,73.59
2018-12-14T05:50:01.972Z,74.24
2018-12-14T05:52:34.938Z,74.95
2018-12-14T05:55:08.886Z,73.64
2018-12-14T05:57:44.127Z,73.53
2018-12-14T06:00:15.030Z,74.17
2018-12-14T06:02:50.537Z,73.76
2018-12-14T06:05:23.275Z,73.18
2018-12-14T06:07:55.438Z,74.29
2018-12-14T06:13:01.694Z,74.57
2018-12-14T06:15:42.096Z,74.54
2018-12-14T06:18:14.807Z,73.86
2018-12-14T06:20:47.178Z,73.81
2018-12-14T06:23:19.929Z,73.91
2018-12-14T06:25:51.807Z,74.37
2018-12-14T06:28:22.044Z,74.51
2018-12-14T06:30:54.341Z,74.28
2018-12-14T06:33:25.079Z,74.58
2018-12-14T06:35:57.001Z,74.59
2018-12-14T06:38:29.064Z,73.48
2018-12-14T06:41:02.094Z,74.00
2018-12-14T06:43:33.902Z,74.27
2018-12-14T06:46:06.005Z,74.91
2018-12-14T06:48:38.543Z,74.81
2018-12-14T06:51:11.096Z,74.79
2018-12-14T06:53:42.886Z,74.09
2018-12-14T06:56:15.280Z,74.95
2018-12-14T06:58:50.094Z,74.53
2018-12-14T07:01:20.500Z,74.16
2018-12-14T07:03:51.141Z,74.42
2018-12-14T07:06:22.976Z,74.52
2018-12-14T07:08:55.593Z,74.57
2018-12-14T07:14:00.293Z,74.40
2018-12-14T07:16:30.660Z,74.59
2018-12-14T07:19:02.573Z,74.72
2018-12-14T07:21:34.770Z,74.18
2018-12-14T07:24:07.195Z,74.47
2018-12-14T07:26:40.352Z,74.32
2018-12-14T07:29:12.867Z,74.49
2018-12-14T07:34:39.433Z,74.44
2018-12-14T07:37:12.152Z,74.28
2018-12-14T07:39:44.323Z,74.13
2018-12-14T07:42:16.755Z,73.80
2018-12-14T07:44:49.053Z,73.99
2018-12-14T07:47:22.208Z,74.17
2018-12-14T07:49:54.340Z,74.42
2018-12-14T07:52:26.500Z,74.57
2018-12-14T07:54:56.775Z,74.11
2018-12-14T07:57:29.938Z,74.37
2018-12-14T08:00:02.767Z,73.76
2018-12-14T08:02:37.569Z,73.64
2018-12-14T08:05:09.703Z,74.08
2018-12-14T08:07:40.018Z,73.61
2018-12-14T08:10:12.848Z,74.08
2018-12-14T08:12:46.292Z,73.66
2018-12-14T08:15:20.508Z,73.15
2018-12-14T08:17:53.540Z,73.33
2018-12-14T08:20:26.291Z,73.25
2018-12-14T08:22:59.110Z,72.88
2018-12-14T08:25:31.807Z,72.71
2018-12-14T08:28:04.390Z,73.41
2018-12-14T08:30:37.599Z,73.32
2018-12-14T08:33:09.517Z,73.04
2018-12-14T08:35:41.934Z,73.36
2018-12-14T08:38:15.209Z,73.69
2018-12-14T08:40:47.886Z,72.89
2018-12-14T08:43:19.560Z,73.32
2018-12-14T08:45:52.110Z,73.18
2018-12-14T08:48:24.528Z,73.57
2018-12-14T08:50:57.965Z,72.34
2018-12-14T08:53:37.582Z,72.05
2018-12-14T08:56:14.649Z,71.94
2018-12-14T08:58:48.077Z,72.14
2018-12-14T09:01:21.432Z,72.15
2018-12-14T09:03:55.259Z,71.93
2018-12-14T09:06:27.351Z,72.27
2018-12-14T09:09:04.813Z,72.36
2018-12-14T09:11:37.007Z,71.92
2018-12-14T09:14:12.608Z,71.79
2018-12-14T09:19:16.870Z,72.32
2018-12-14T09:21:49.701Z,72.06
2018-12-14T09:24:21.920Z,72.32
2018-12-14T09:26:54.603Z,71.85
2018-12-14T09:29:28.030Z,72.10
2018-12-14T09:32:00.504Z,71.38
2018-12-14T09:34:33.085Z,72.02
2018-12-14T09:37:05.011Z,71.99
2018-12-14T09:39:37.158Z,72.26
2018-12-14T09:42:09.585Z,71.52
2018-12-14T09:44:41.693Z,71.89
2018-12-14T09:47:14.099Z,72.14
2018-12-14T09:49:49.559Z,72.14
2018-12-14T09:52:21.678Z,71.63
2018-12-14T09:54:53.743Z,71.81
2018-12-14T09:57:23.983Z,71.61
2018-12-14T09:59:57.229Z,71.91
2018-12-14T10:02:29.813Z,71.39
2018-12-14T10:05:02.187Z,71.65
2018-12-14T10:07:34.525Z,71.52
2018-12-14T10:10:09.017Z,71.77
2018-12-14T10:12:41.022Z,71.45
2018-12-14T10:15:13.158Z,71.08
2018-12-14T10:17:48.340Z,70.87
2018-12-14T10:20:20.312Z,71.77
2018-12-14T10:22:52.178Z,70.10
2018-12-14T10:25:23.989Z,70.65
2018-12-14T10:27:56.476Z,70.27
2018-12-14T10:30:28.428Z,70.43
2018-12-14T10:33:04.142Z,71.37
2018-12-14T10:35:36.005Z,70.95
2018-12-14T10:38:08.655Z,69.83
2018-12-14T10:40:40.427Z,70.12
2018-12-14T10:43:12.509Z,69.37
2018-12-14T10:45:49.920Z,70.01
2018-12-14T10:48:23.427Z,70.35
2018-12-14T10:50:56.024Z,69.34
2018-12-14T10:53:28.034Z,70.24
2018-12-14T10:56:02.041Z,70.46
2018-12-14T10:58:37.672Z,69.64
2018-12-14T11:01:14.673Z,69.18
2018-12-14T11:03:48.419Z,69.27
2018-12-14T11:06:23.041Z,69.22
2018-12-14T11:23:30.761Z,68.75
2018-12-14T11:26:05.278Z,68.54
2018-12-14T11:28:36.929Z,68.77
2018-12-14T11:31:09.157Z,69.32
2018-12-14T11:33:41.350Z,68.86
2018-12-14T11:36:13.950Z,69.56
2018-12-14T11:38:45.687Z,69.10
2018-12-14T11:41:18.611Z,68.81
2018-12-14T11:43:49.263Z,68.72
2018-12-14T11:46:20.993Z,68.48
2018-12-14T11:48:51.272Z,69.13
2018-12-14T11:51:24.444Z,68.03
2018-12-14T11:53:56.845Z,67.55
2018-12-14T11:56:28.933Z,67.83
2018-12-14T11:59:01.212Z,66.88
2018-12-14T12:01:33.604Z,67.97
2018-12-14T12:04:05.804Z,68.08
2018-12-14T12:06:38.376Z,68.70
2018-12-14T12:09:12.046Z,67.75
2018-12-14T12:11:44.348Z,68.01
2018-12-14T12:14:16.671Z,68.25
2018-12-14T12:16:48.877Z,67.38
2018-12-14T12:19:21.044Z,67.59
2018-12-14T12:21:52.990Z,68.29
2018-12-14T12:24:25.348Z,67.57
2018-12-14T12:26:57.159Z,68.27
2018-12-14T12:29:32.000Z,67.08
2018-12-14T12:32:03.821Z,67.34
2018-12-14T12:34:38.405Z,67.08
2018-12-14T12:37:10.118Z,67.75
2018-12-14T12:39:49.688Z,67.33
2018-12-14T12:42:22.094Z,66.87
2018-12-14T12:44:56.087Z,67.60
2018-12-14T12:47:28.500Z,67.50
2018-12-14T12:49:59.703Z,67.58
2018-12-14T12:52:31.959Z,67.70
2018-12-14T12:55:02.392Z,67.85
2018-12-14T12:57:36.969Z,67.85
2018-12-14T13:00:10.164Z,66.72
2018-12-14T13:02:42.531Z,67.81
2018-12-14T13:05:14.268Z,67.61
2018-12-14T13:07:46.507Z,67.33
2018-12-14T13:10:18.627Z,67.97
2018-12-14T13:12:50.723Z,67.47
2018-12-14T13:15:22.943Z,66.63
2018-12-14T13:17:55.421Z,66.92
2018-12-14T13:20:27.382Z,67.45
2018-12-14T13:22:59.397Z,67.25
2018-12-14T13:28:01.262Z,66.81
2018-12-14T13:30:33.863Z,66.63
2018-12-14T13:33:04.855Z,66.96
2018-12-14T13:35:36.763Z,67.93
2018-12-14T13:38:07.184Z,67.49
2018-12-14T13:40:39.257Z,68.56
2018-12-14T13:43:11.494Z,67.73
2018-12-14T13:45:43.918Z,68.31
2018-12-14T13:48:14.197Z,67.99
2018-12-14T13:50:46.321Z,68.52
2018-12-14T13:53:18.408Z,67.94
2018-12-14T13:55:50.762Z,68.52
2018-12-14T13:58:22.917Z,67.99
2018-12-14T14:00:54.522Z,68.21
2018-12-14T14:03:27.003Z,67.95
2018-12-14T14:05:59.596Z,68.13
2018-12-14T14:08:31.934Z,68.16
2018-12-14T14:11:03.736Z,68.87
2018-12-14T14:13:35.909Z,67.57
2018-12-14T14:16:08.323Z,68.03
2018-12-14T14:18:42.873Z,68.83
2018-12-14T14:21:15.156Z,67.90
2018-12-14T14:23:45.169Z,67.62
2018-12-14T14:31:15.538Z,68.29
2018-12-14T14:33:47.662Z,68.91
2018-12-14T14:36:22.309Z,69.17
2018-12-14T14:38:54.891Z,69.31
2018-12-14T14:41:26.999Z,69.06
2018-12-14T14:43:59.714Z,68.55
2018-12-14T14:46:31.740Z,69.50
2018-12-14T14:49:04.308Z,69.07
2018-12-14T14:51:37.787Z,69.31
2018-12-14T14:54:07.920Z,68.98
2018-12-14T14:56:40.102Z,68.24
2018-12-14T14:59:12.626Z,68.71
2018-12-14T15:01:44.757Z,68.63
2018-12-14T15:04:16.804Z,68.53
2018-12-14T15:06:50.071Z,68.51
2018-12-14T15:09:22.093Z,68.52
2018-12-14T15:11:54.065Z,68.82
2018-12-14T15:14:26.130Z,68.48
2018-12-14T15:16:58.757Z,69.47
2018-12-14T15:19:30.919Z,69.13
2018-12-14T15:22:04.661Z,69.49
2018-12-14T15:24:37.147Z,69.50
2018-12-14T15:27:09.018Z,69.59
2018-12-14T15:32:12.864Z,70.30
2018-12-14T15:34:45.875Z,69.10
2018-12-14T15:37:18.349Z,69.81
2018-12-14T15:39:50.357Z,70.07
2018-12-14T15:42:23.603Z,70.03
2018-12-14T15:44:57.652Z,70.02
2018-12-14T15:47:31.615Z,69.67
2018-12-14T15:50:04.577Z,69.49
2018-12-14T15:52:44.748Z,71.16
2018-12-14T15:55:17.700Z,71.38
2018-12-14T15:57:50.017Z,70.71
2018-12-14T16:00:22.514Z,71.55
2018-12-14T16:02:55.871Z,71.18
2018-12-14T16:05:29.251Z,71.24
2018-12-14T16:08:01.595Z,71.33
2018-12-14T16:10:33.894Z,71.58
2018-12-14T16:13:06.304Z,71.01
2018-12-14T16:15:38.348Z,71.00
2018-12-14T16:18:12.816Z,71.06
2018-12-14T16:20:45.674Z,70.98
2018-12-14T16:23:17.894Z,71.39
2018-12-14T16:25:50.592Z,72.18
2018-12-14T16:28:21.300Z,71.72
2018-12-14T16:30:54.251Z,71.27
2018-12-14T16:33:26.647Z,71.67
2018-12-14T16:35:58.837Z,71.08
2018-12-14T16:38:30.912Z,72.19
2018-12-14T16:41:03.291Z,72.25
2018-12-14T16:43:35.559Z,71.76
2018-12-14T16:46:07.741Z,71.78
2018-12-14T16:48:39.832Z,71.21
2018-12-14T16:51:10.027Z,71.64
2018-12-14T16:53:47.560Z,71.66
2018-12-14T16:56:18.153Z,72.41
2018-12-14T16:58:50.111Z,71.76
2018-12-14T17:01:25.509Z,72.08
2018-12-14T17:03:57.760Z,71.51
2018-12-14T17:06:28.232Z,71.61
2018-12-14T17:09:00.279Z,71.94
2018-12-14T17:11:36.903Z,71.44
2018-12-14T17:14:08.746Z,72.32
2018-12-14T17:16:38.772Z,71.95
2018-12-14T17:19:09.084Z,71.95
2018-12-14T17:21:41.669Z,72.20
2018-12-14T17:24:11.957Z,72.00
2018-12-14T17:26:43.744Z,72.17
2018-12-14T17:29:14.075Z,71.83
2018-12-14T17:31:48.601Z,71.69
2018-12-14T17:34:20.427Z,71.73
2018-12-14T17:36:52.705Z,71.86
2018-12-14T17:39:24.891Z,72.15
2018-12-14T17:41:57.187Z,72.32
2018-12-14T17:44:29.835Z,72.28
2018-12-14T17:47:12.451Z,72.01
2018-12-14T17:49:43.745Z,72.42
2018-12-14T17:52:18.156Z,72.15
2018-12-14T17:54:51.698Z,72.29
2018-12-14T17:57:23.888Z,72.64
2018-12-14T17:59:56.650Z,72.20
2018-12-14T18:02:29.825Z,72.51
2018-12-14T18:05:03.927Z,72.24
2018-12-14T18:07:36.652Z,72.48
2018-12-14T18:10:08.787Z,71.99
2018-12-14T18:12:40.790Z,71.97
2018-12-14T18:15:13.569Z,71.67
2018-12-14T18:17:45.257Z,72.13
2018-12-14T18:20:18.170Z,72.02
2018-12-14T18:22:50.800Z,71.60
2018-12-14T18:25:23.608Z,72.37
2018-12-14T18:27:55.749Z,72.53
2018-12-14T18:30:28.418Z,72.46
2018-12-14T18:38:04.671Z,72.69
2018-12-14T18:40:36.905Z,72.25
2018-12-14T18:43:07.460Z,72.88
2018-12-14T18:45:39.191Z,72.40
2018-12-14T18:48:12.591Z,73.46
2018-12-14T18:50:44.763Z,72.98
2018-12-14T18:53:16.990Z,72.47
2018-12-14T18:55:49.201Z,72.79
2018-12-14T18:58:21.420Z,72.60
2018-12-14T19:00:56.049Z,72.79
2018-12-14T19:06:21.097Z,72.94
2018-12-14T19:08:53.345Z,73.87
2018-12-14T19:11:25.727Z,73.18
2018-12-14T19:13:57.592Z,73.17
2018-12-14T19:16:30.059Z,73.38
2018-12-14T19:19:02.065Z,73.12
2018-12-14T19:21:33.932Z,73.01
2018-12-14T19:24:06.390Z,72.73
2018-12-14T19:26:38.306Z,73.26
2018-12-14T19:29:11.074Z,73.35
2018-12-14T19:31:43.430Z,73.01
2018-12-14T19:34:13.811Z,73.17
2018-12-14T19:36:45.807Z,72.96
2018-12-14T19:39:18.391Z,72.93
2018-12-14T19:41:50.157Z,73.24
2018-12-14T19:44:20.616Z,73.21
2018-12-14T19:46:52.771Z,72.77
2018-12-14T19:49:22.736Z,73.51
2018-12-14T19:51:55.173Z,73.12
2018-12-14T19:54:27.410Z,73.33
2018-12-14T19:56:59.438Z,72.96
2018-12-14T19:59:31.658Z,72.88
2018-12-14T20:02:04.208Z,72.59
2018-12-14T20:04:36.067Z,73.21
2018-12-14T20:07:10.391Z,73.65
2018-12-14T20:09:44.808Z,72.94
2018-12-14T20:12:19.370Z,72.77
2018-12-14T20:14:51.477Z,73.50
2018-12-14T20:17:26.523Z,72.89
2018-12-14T20:19:59.686Z,73.34
2018-12-14T20:22:32.590Z,73.27
2018-12-14T20:25:06.572Z,73.54
2018-12-14T20:27:39.244Z,74.19
2018-12-14T20:30:12.738Z,73.48
2018-12-14T20:32:46.182Z,72.67
2018-12-14T20:35:19.577Z,73.16
2018-12-14T20:37:52.807Z,73.66
2018-12-14T20:40:30.711Z,73.99
2018-12-14T20:43:03.241Z,73.82
2018-12-14T20:45:43.867Z,73.58
2018-12-14T20:48:17.430Z,73.25
2018-12-14T20:50:49.787Z,73.94
2018-12-14T20:53:22.228Z,74.70
2018-12-14T20:55:55.271Z,74.01
2018-12-14T20:58:27.574Z,74.53
2018-12-14T21:01:00.906Z,74.13
2018-12-14T21:03:33.381Z,73.80
2018-12-14T21:06:09.343Z,73.64
2018-12-14T21:08:42.919Z,74.48
2018-12-14T21:11:18.446Z,74.01
2018-12-14T21:13:50.541Z,73.64
2018-12-14T21:16:25.966Z,73.31
2018-12-14T21:18:56.801Z,74.01
2018-12-14T21:21:30.087Z,73.59
2018-12-14T21:24:02.309Z,73.34
2018-12-14T21:26:39.622Z,73.80
2018-12-14T21:38:06.822Z,74.80
2018-12-14T21:40:38.835Z,73.88
2018-12-14T21:43:11.377Z,74.08
2018-12-14T21:45:43.124Z,74.09
2018-12-14T21:48:15.564Z,74.28
2018-12-14T21:50:48.464Z,73.97
2018-12-14T21:53:20.576Z,74.61
2018-12-14T21:55:53.005Z,74.61
2018-12-14T21:58:24.966Z,74.75
2018-12-14T22:01:01.708Z,73.31
2018-12-14T22:03:34.342Z,73.07
2018-12-14T22:06:06.531Z,73.84
2018-12-14T22:08:36.620Z,73.41
2018-12-14T22:11:09.002Z,73.27
2018-12-14T22:13:41.809Z,73.60
2018-12-14T22:16:13.428Z,73.40
2018-12-14T22:18:45.699Z,73.65
2018-12-14T22:21:17.974Z,72.80
2018-12-14T22:23:50.193Z,72.57
2018-12-14T22:26:23.137Z,73.07
2018-12-14T22:28:55.211Z,73.35
2018-12-14T22:31:27.904Z,73.42
2018-12-14T22:34:00.994Z,72.98
2018-12-14T22:36:34.441Z,72.71
2018-12-14T22:39:07.543Z,72.97
2018-12-14T22:41:40.751Z,72.65
2018-12-14T22:44:11.831Z,72.83
2018-12-14T22:46:45.577Z,72.98
2018-12-14T22:49:16.738Z,72.84
2018-12-14T22:51:49.317Z,72.63
2018-12-14T22:54:32.137Z,73.16
2018-12-14T22:57:04.713Z,73.82
2018-12-14T22:59:37.355Z,73.12
2018-12-14T23:02:09.483Z,73.32
2018-12-14T23:04:41.783Z,72.67
2018-12-14T23:07:13.669Z,72.24
2018-12-14T23:09:45.956Z,72.40
2018-12-14T23:12:19.138Z,72.40
2018-12-14T23:14:52.649Z,71.95
2018-12-14T23:17:26.976Z,72.70
2018-12-14T23:19:58.919Z,72.91
2018-12-14T23:22:31.524Z,72.52
2018-12-14T23:25:03.260Z,72.33
2018-12-14T23:27:35.871Z,72.23
2018-12-14T23:30:10.869Z,71.82
2018-12-14T23:32:42.869Z,71.62
2018-12-14T23:35:15.377Z,71.90
2018-12-14T23:37:47.999Z,72.56
2018-12-14T23:40:21.034Z,72.02
2018-12-14T23:45:24.120Z,72.28
2018-12-14T23:47:56.067Z,72.00
2018-12-14T23:50:28.476Z,72.39
2018-12-14T23:53:00.967Z,72.26
2018-12-14T23:55:43.077Z,72.00
2018-12-14T23:58:15.565Z,71.95
